Barnsbury, United Kingdom
Current Conditions -  °F | °C
As of 8:50 AM on Friday 28 Nov 2014 (Local Time) from EGLC Reporting Station
Broken Clouds Broken Clouds  
Wind Chill: 52°   Ceiling: 600
Heat Index: 52°   Visibility: 2.5mi
Dew Point: 50°   Wind: 17mph
Humidity: 94%   Direction: 90°E
Pressure: 29.62"   Gusts: NA
Location:  51.54°N, 0.12°W
Report Text: EGLC 280850Z 09015KT 4000 FEW005 BKN006 11/10 Q1003
Loading
Personal Weather Stations






























Interactive Weather Map New forecast layout! Learn more

10-Day Weather Forecast

Advertisements
Track Severe Weather on mobile